sensor_id;sensor_type;location;lat;lon;timestamp;P1;durP1;ratioP1;P2;durP2;ratioP2
48006;SDS011;33771;48.180;11.400;2023-06-24T00:02:06;7.97;;;5.45;;
48006;SDS011;33771;48.180;11.400;2023-06-24T00:04:31;7.40;;;5.68;;
48006;SDS011;33771;48.180;11.400;2023-06-24T00:06:57;8.43;;;5.93;;
48006;SDS011;33771;48.180;11.400;2023-06-24T00:09:25;9.05;;;6.43;;
48006;SDS011;33771;48.180;11.400;2023-06-24T00:11:52;6.50;;;4.90;;
48006;SDS011;33771;48.180;11.400;2023-06-24T00:14:19;8.63;;;5.40;;
48006;SDS011;33771;48.180;11.400;2023-06-24T00:16:46;6.05;;;5.10;;
48006;SDS011;33771;48.180;11.400;2023-06-24T00:19:16;6.78;;;5.35;;
48006;SDS011;33771;48.180;11.400;2023-06-24T00:21:45;5.53;;;4.50;;
48006;SDS011;33771;48.180;11.400;2023-06-24T00:24:12;7.15;;;4.47;;
48006;SDS011;33771;48.180;11.400;2023-06-24T00:26:37;5.78;;;4.63;;
48006;SDS011;33771;48.180;11.400;2023-06-24T00:29:03;5.88;;;4.70;;
48006;SDS011;33771;48.180;11.400;2023-06-24T00:31:28;5.57;;;4.45;;
48006;SDS011;33771;48.180;11.400;2023-06-24T00:33:54;6.50;;;4.75;;
48006;SDS011;33771;48.180;11.400;2023-06-24T00:36:20;7.93;;;4.88;;
48006;SDS011;33771;48.180;11.400;2023-06-24T00:38:46;5.90;;;4.90;;
48006;SDS011;33771;48.180;11.400;2023-06-24T00:41:13;8.73;;;5.88;;
48006;SDS011;33771;48.180;11.400;2023-06-24T00:43:41;11.07;;;6.60;;
48006;SDS011;33771;48.180;11.400;2023-06-24T00:46:06;9.27;;;6.30;;
48006;SDS011;33771;48.180;11.400;2023-06-24T00:48:32;12.18;;;6.38;;
48006;SDS011;33771;48.180;11.400;2023-06-24T00:50:57;6.50;;;5.32;;
48006;SDS011;33771;48.180;11.400;2023-06-24T00:53:26;6.85;;;4.80;;
48006;SDS011;33771;48.180;11.400;2023-06-24T00:55:52;6.55;;;4.95;;
48006;SDS011;33771;48.180;11.400;2023-06-24T00:58:20;6.50;;;5.22;;
48006;SDS011;33771;48.180;11.400;2023-06-24T01:00:46;7.22;;;4.80;;
48006;SDS011;33771;48.180;11.400;2023-06-24T01:03:21;5.85;;;4.57;;
48006;SDS011;33771;48.180;11.400;2023-06-24T01:05:48;7.30;;;4.95;;
48006;SDS011;33771;48.180;11.400;2023-06-24T01:08:14;6.55;;;4.60;;
48006;SDS011;33771;48.180;11.400;2023-06-24T01:10:40;6.05;;;4.50;;
48006;SDS011;33771;48.180;11.400;2023-06-24T01:13:06;6.28;;;4.40;;
48006;SDS011;33771;48.180;11.400;2023-06-24T01:15:32;6.22;;;4.43;;
48006;SDS011;33771;48.180;11.400;2023-06-24T01:18:11;7.57;;;4.63;;
48006;SDS011;33771;48.180;11.400;2023-06-24T01:26:57;6.35;;;4.75;;
48006;SDS011;33771;48.180;11.400;2023-06-24T01:32:07;9.15;;;4.78;;
48006;SDS011;33771;48.180;11.400;2023-06-24T01:34:59;7.13;;;4.43;;
48006;SDS011;33771;48.180;11.400;2023-06-24T01:40:10;7.47;;;4.90;;
48006;SDS011;33771;48.180;11.400;2023-06-24T01:42:42;5.47;;;4.78;;
48006;SDS011;33771;48.180;11.400;2023-06-24T01:45:12;7.28;;;5.18;;
48006;SDS011;33771;48.180;11.400;2023-06-24T01:47:40;9.32;;;4.80;;
48006;SDS011;33771;48.180;11.400;2023-06-24T01:50:10;7.97;;;4.97;;
48006;SDS011;33771;48.180;11.400;2023-06-24T01:52:37;8.32;;;5.47;;
48006;SDS011;33771;48.180;11.400;2023-06-24T01:55:06;6.65;;;4.63;;
48006;SDS011;33771;48.180;11.400;2023-06-24T01:57:34;6.15;;;4.78;;
48006;SDS011;33771;48.180;11.400;2023-06-24T02:00:01;6.07;;;4.53;;
48006;SDS011;33771;48.180;11.400;2023-06-24T02:02:31;6.53;;;4.63;;
48006;SDS011;33771;48.180;11.400;2023-06-24T02:04:57;6.18;;;4.55;;
48006;SDS011;33771;48.180;11.400;2023-06-24T02:07:26;7.13;;;5.05;;
48006;SDS011;33771;48.180;11.400;2023-06-24T02:09:54;8.55;;;5.05;;
48006;SDS011;33771;48.180;11.400;2023-06-24T02:12:21;7.50;;;5.43;;
48006;SDS011;33771;48.180;11.400;2023-06-24T02:14:49;7.78;;;4.82;;
48006;SDS011;33771;48.180;11.400;2023-06-24T02:17:16;5.95;;;5.03;;
48006;SDS011;33771;48.180;11.400;2023-06-24T02:19:42;7.43;;;4.65;;
48006;SDS011;33771;48.180;11.400;2023-06-24T02:22:08;7.18;;;5.30;;
48006;SDS011;33771;48.180;11.400;2023-06-24T02:24:34;6.72;;;5.20;;
48006;SDS011;33771;48.180;11.400;2023-06-24T02:27:02;7.63;;;4.95;;
48006;SDS011;33771;48.180;11.400;2023-06-24T02:29:29;6.97;;;4.82;;
48006;SDS011;33771;48.180;11.400;2023-06-24T02:31:56;8.27;;;4.90;;
48006;SDS011;33771;48.180;11.400;2023-06-24T02:34:22;7.57;;;4.88;;
48006;SDS011;33771;48.180;11.400;2023-06-24T02:36:49;6.72;;;5.30;;
48006;SDS011;33771;48.180;11.400;2023-06-24T02:39:14;5.68;;;4.70;;
48006;SDS011;33771;48.180;11.400;2023-06-24T02:41:40;5.95;;;4.50;;
48006;SDS011;33771;48.180;11.400;2023-06-24T02:44:05;6.80;;;4.90;;
48006;SDS011;33771;48.180;11.400;2023-06-24T02:46:31;7.22;;;5.05;;
48006;SDS011;33771;48.180;11.400;2023-06-24T02:48:59;6.82;;;5.28;;
48006;SDS011;33771;48.180;11.400;2023-06-24T02:51:25;6.18;;;4.80;;
48006;SDS011;33771;48.180;11.400;2023-06-24T02:53:51;6.85;;;4.97;;
48006;SDS011;33771;48.180;11.400;2023-06-24T02:56:17;7.68;;;4.72;;
48006;SDS011;33771;48.180;11.400;2023-06-24T02:58:45;6.90;;;4.65;;
48006;SDS011;33771;48.180;11.400;2023-06-24T03:01:12;5.85;;;4.72;;
48006;SDS011;33771;48.180;11.400;2023-06-24T03:03:38;5.90;;;4.65;;
48006;SDS011;33771;48.180;11.400;2023-06-24T03:06:06;6.70;;;4.60;;
48006;SDS011;33771;48.180;11.400;2023-06-24T03:08:32;7.28;;;4.60;;
48006;SDS011;33771;48.180;11.400;2023-06-24T03:10:58;5.22;;;4.25;;
48006;SDS011;33771;48.180;11.400;2023-06-24T03:13:24;6.13;;;5.00;;
48006;SDS011;33771;48.180;11.400;2023-06-24T03:15:49;9.98;;;4.75;;
48006;SDS011;33771;48.180;11.400;2023-06-24T03:18:16;7.05;;;4.55;;
48006;SDS011;33771;48.180;11.400;2023-06-24T03:20:42;7.03;;;4.80;;
48006;SDS011;33771;48.180;11.400;2023-06-24T03:23:08;5.90;;;4.63;;
48006;SDS011;33771;48.180;11.400;2023-06-24T03:25:36;7.50;;;5.65;;
48006;SDS011;33771;48.180;11.400;2023-06-24T03:28:02;8.05;;;4.65;;
48006;SDS011;33771;48.180;11.400;2023-06-24T03:30:32;6.63;;;4.82;;
48006;SDS011;33771;48.180;11.400;2023-06-24T03:32:58;8.07;;;4.47;;
48006;SDS011;33771;48.180;11.400;2023-06-24T03:35:23;5.90;;;4.35;;
48006;SDS011;33771;48.180;11.400;2023-06-24T03:37:49;6.28;;;4.50;;
48006;SDS011;33771;48.180;11.400;2023-06-24T03:40:14;6.15;;;4.68;;
48006;SDS011;33771;48.180;11.400;2023-06-24T03:42:40;5.75;;;4.43;;
48006;SDS011;33771;48.180;11.400;2023-06-24T03:45:06;5.97;;;4.13;;
48006;SDS011;33771;48.180;11.400;2023-06-24T03:47:32;5.32;;;4.47;;
48006;SDS011;33771;48.180;11.400;2023-06-24T03:49:57;5.80;;;4.05;;
48006;SDS011;33771;48.180;11.400;2023-06-24T03:52:24;6.68;;;4.47;;
48006;SDS011;33771;48.180;11.400;2023-06-24T03:54:50;8.13;;;5.10;;
48006;SDS011;33771;48.180;11.400;2023-06-24T03:57:16;8.32;;;4.75;;
48006;SDS011;33771;48.180;11.400;2023-06-24T03:59:41;8.13;;;4.57;;
48006;SDS011;33771;48.180;11.400;2023-06-24T04:02:07;5.47;;;4.40;;
48006;SDS011;33771;48.180;11.400;2023-06-24T04:04:33;5.03;;;3.83;;
48006;SDS011;33771;48.180;11.400;2023-06-24T04:06:59;6.20;;;4.70;;
48006;SDS011;33771;48.180;11.400;2023-06-24T04:09:24;9.70;;;5.30;;
48006;SDS011;33771;48.180;11.400;2023-06-24T04:11:50;5.43;;;4.32;;
48006;SDS011;33771;48.180;11.400;2023-06-24T04:14:15;5.35;;;4.38;;
48006;SDS011;33771;48.180;11.400;2023-06-24T04:16:41;7.75;;;4.53;;
48006;SDS011;33771;48.180;11.400;2023-06-24T04:19:06;5.80;;;4.75;;
48006;SDS011;33771;48.180;11.400;2023-06-24T04:21:32;7.38;;;4.88;;
48006;SDS011;33771;48.180;11.400;2023-06-24T04:23:58;6.53;;;4.18;;
48006;SDS011;33771;48.180;11.400;2023-06-24T04:26:23;9.63;;;5.65;;
48006;SDS011;33771;48.180;11.400;2023-06-24T04:28:49;7.30;;;4.60;;
48006;SDS011;33771;48.180;11.400;2023-06-24T04:31:14;6.05;;;4.18;;
48006;SDS011;33771;48.180;11.400;2023-06-24T04:33:40;7.88;;;4.60;;
48006;SDS011;33771;48.180;11.400;2023-06-24T04:36:06;6.53;;;4.45;;
48006;SDS011;33771;48.180;11.400;2023-06-24T04:38:31;6.05;;;4.78;;
48006;SDS011;33771;48.180;11.400;2023-06-24T04:40:57;5.63;;;4.22;;
48006;SDS011;33771;48.180;11.400;2023-06-24T04:43:24;6.28;;;4.35;;
48006;SDS011;33771;48.180;11.400;2023-06-24T04:45:50;5.70;;;4.53;;
48006;SDS011;33771;48.180;11.400;2023-06-24T04:48:16;5.35;;;4.45;;
48006;SDS011;33771;48.180;11.400;2023-06-24T04:50:41;6.72;;;3.97;;
48006;SDS011;33771;48.180;11.400;2023-06-24T04:53:07;7.55;;;4.47;;
48006;SDS011;33771;48.180;11.400;2023-06-24T04:55:32;5.10;;;4.43;;
48006;SDS011;33771;48.180;11.400;2023-06-24T04:57:58;6.15;;;4.35;;
48006;SDS011;33771;48.180;11.400;2023-06-24T05:00:23;5.78;;;4.90;;
48006;SDS011;33771;48.180;11.400;2023-06-24T05:02:49;6.35;;;4.43;;
48006;SDS011;33771;48.180;11.400;2023-06-24T05:05:15;8.82;;;3.92;;
48006;SDS011;33771;48.180;11.400;2023-06-24T05:07:41;6.85;;;4.70;;
48006;SDS011;33771;48.180;11.400;2023-06-24T05:10:06;7.15;;;4.20;;
48006;SDS011;33771;48.180;11.400;2023-06-24T05:12:32;6.03;;;4.15;;
48006;SDS011;33771;48.180;11.400;2023-06-24T05:14:57;6.05;;;4.50;;
48006;SDS011;33771;48.180;11.400;2023-06-24T05:17:23;6.25;;;4.43;;
48006;SDS011;33771;48.180;11.400;2023-06-24T05:19:49;5.38;;;3.88;;
48006;SDS011;33771;48.180;11.400;2023-06-24T05:22:14;5.95;;;4.20;;
48006;SDS011;33771;48.180;11.400;2023-06-24T05:24:41;11.98;;;5.00;;
48006;SDS011;33771;48.180;11.400;2023-06-24T05:27:07;4.88;;;4.20;;
48006;SDS011;33771;48.180;11.400;2023-06-24T05:29:33;6.07;;;4.75;;
48006;SDS011;33771;48.180;11.400;2023-06-24T05:31:59;7.22;;;4.57;;
48006;SDS011;33771;48.180;11.400;2023-06-24T05:34:27;6.22;;;4.38;;
48006;SDS011;33771;48.180;11.400;2023-06-24T05:36:52;5.47;;;4.50;;
48006;SDS011;33771;48.180;11.400;2023-06-24T05:39:18;6.63;;;5.10;;
48006;SDS011;33771;48.180;11.400;2023-06-24T05:41:44;5.65;;;4.40;;
48006;SDS011;33771;48.180;11.400;2023-06-24T05:44:10;6.28;;;4.00;;
48006;SDS011;33771;48.180;11.400;2023-06-24T05:46:35;5.65;;;4.72;;
48006;SDS011;33771;48.180;11.400;2023-06-24T05:49:01;5.80;;;4.50;;
48006;SDS011;33771;48.180;11.400;2023-06-24T05:51:27;7.22;;;4.97;;
48006;SDS011;33771;48.180;11.400;2023-06-24T05:53:53;5.70;;;4.20;;
48006;SDS011;33771;48.180;11.400;2023-06-24T05:56:19;5.75;;;4.57;;
48006;SDS011;33771;48.180;11.400;2023-06-24T05:58:46;5.45;;;4.43;;
48006;SDS011;33771;48.180;11.400;2023-06-24T06:01:11;8.52;;;4.72;;
48006;SDS011;33771;48.180;11.400;2023-06-24T06:03:37;5.10;;;4.60;;
48006;SDS011;33771;48.180;11.400;2023-06-24T06:06:03;7.50;;;4.10;;
48006;SDS011;33771;48.180;11.400;2023-06-24T06:08:28;7.05;;;4.47;;
48006;SDS011;33771;48.180;11.400;2023-06-24T06:10:54;7.88;;;4.07;;
48006;SDS011;33771;48.180;11.400;2023-06-24T06:13:20;7.10;;;4.40;;
48006;SDS011;33771;48.180;11.400;2023-06-24T06:15:45;6.85;;;4.05;;
48006;SDS011;33771;48.180;11.400;2023-06-24T06:18:11;4.88;;;4.07;;
48006;SDS011;33771;48.180;11.400;2023-06-24T06:20:36;5.55;;;4.00;;
48006;SDS011;33771;48.180;11.400;2023-06-24T06:23:02;4.75;;;3.85;;
48006;SDS011;33771;48.180;11.400;2023-06-24T06:25:28;5.32;;;4.20;;
48006;SDS011;33771;48.180;11.400;2023-06-24T06:27:54;7.47;;;4.57;;
48006;SDS011;33771;48.180;11.400;2023-06-24T06:30:19;5.03;;;4.47;;
48006;SDS011;33771;48.180;11.400;2023-06-24T06:32:45;4.57;;;3.95;;
48006;SDS011;33771;48.180;11.400;2023-06-24T06:35:11;5.20;;;4.38;;
48006;SDS011;33771;48.180;11.400;2023-06-24T06:37:37;5.28;;;4.30;;
48006;SDS011;33771;48.180;11.400;2023-06-24T06:40:02;5.10;;;4.00;;
48006;SDS011;33771;48.180;11.400;2023-06-24T06:42:29;5.68;;;4.00;;
48006;SDS011;33771;48.180;11.400;2023-06-24T06:44:55;4.65;;;3.97;;
48006;SDS011;33771;48.180;11.400;2023-06-24T06:47:20;5.50;;;3.60;;
48006;SDS011;33771;48.180;11.400;2023-06-24T06:49:46;5.20;;;3.88;;
48006;SDS011;33771;48.180;11.400;2023-06-24T06:52:11;4.10;;;3.47;;
48006;SDS011;33771;48.180;11.400;2023-06-24T06:54:37;5.47;;;3.60;;
48006;SDS011;33771;48.180;11.400;2023-06-24T06:57:03;4.55;;;3.83;;
48006;SDS011;33771;48.180;11.400;2023-06-24T06:59:32;5.07;;;3.97;;
48006;SDS011;33771;48.180;11.400;2023-06-24T07:01:58;4.80;;;3.47;;
48006;SDS011;33771;48.180;11.400;2023-06-24T07:04:23;4.53;;;3.88;;
48006;SDS011;33771;48.180;11.400;2023-06-24T07:06:49;4.57;;;3.80;;
48006;SDS011;33771;48.180;11.400;2023-06-24T07:09:15;7.78;;;3.60;;
48006;SDS011;33771;48.180;11.400;2023-06-24T07:11:41;5.15;;;3.58;;
48006;SDS011;33771;48.180;11.400;2023-06-24T07:14:07;4.55;;;3.45;;
48006;SDS011;33771;48.180;11.400;2023-06-24T07:16:32;5.13;;;3.47;;
48006;SDS011;33771;48.180;11.400;2023-06-24T07:18:58;4.50;;;3.47;;
48006;SDS011;33771;48.180;11.400;2023-06-24T07:21:24;4.47;;;3.45;;
48006;SDS011;33771;48.180;11.400;2023-06-24T07:23:49;5.50;;;3.63;;
48006;SDS011;33771;48.180;11.400;2023-06-24T07:26:15;5.07;;;3.38;;
48006;SDS011;33771;48.180;11.400;2023-06-24T07:28:40;4.53;;;3.67;;
48006;SDS011;33771;48.180;11.400;2023-06-24T07:31:06;4.38;;;3.65;;
48006;SDS011;33771;48.180;11.400;2023-06-24T07:33:32;7.00;;;3.70;;
48006;SDS011;33771;48.180;11.400;2023-06-24T07:35:57;5.18;;;3.80;;
48006;SDS011;33771;48.180;11.400;2023-06-24T07:38:23;4.15;;;3.20;;
48006;SDS011;33771;48.180;11.400;2023-06-24T07:40:48;4.18;;;3.08;;
48006;SDS011;33771;48.180;11.400;2023-06-24T07:43:14;5.07;;;3.45;;
48006;SDS011;33771;48.180;11.400;2023-06-24T07:45:40;5.43;;;3.20;;
48006;SDS011;33771;48.180;11.400;2023-06-24T07:48:05;5.13;;;3.60;;
48006;SDS011;33771;48.180;11.400;2023-06-24T07:50:32;5.38;;;3.78;;
48006;SDS011;33771;48.180;11.400;2023-06-24T07:52:58;6.35;;;3.50;;
48006;SDS011;33771;48.180;11.400;2023-06-24T07:55:24;5.75;;;3.50;;
48006;SDS011;33771;48.180;11.400;2023-06-24T07:57:50;4.22;;;3.20;;
48006;SDS011;33771;48.180;11.400;2023-06-24T08:00:15;5.13;;;3.38;;
48006;SDS011;33771;48.180;11.400;2023-06-24T08:02:41;5.00;;;3.70;;
48006;SDS011;33771;48.180;11.400;2023-06-24T08:05:07;4.47;;;3.17;;
48006;SDS011;33771;48.180;11.400;2023-06-24T08:07:34;5.15;;;3.30;;
48006;SDS011;33771;48.180;11.400;2023-06-24T08:10:00;4.60;;;3.15;;
48006;SDS011;33771;48.180;11.400;2023-06-24T08:12:25;3.95;;;3.40;;
48006;SDS011;33771;48.180;11.400;2023-06-24T08:14:51;6.07;;;3.25;;
48006;SDS011;33771;48.180;11.400;2023-06-24T08:17:17;4.60;;;3.80;;
48006;SDS011;33771;48.180;11.400;2023-06-24T08:19:42;5.40;;;3.80;;
48006;SDS011;33771;48.180;11.400;2023-06-24T08:22:08;4.35;;;3.60;;
48006;SDS011;33771;48.180;11.400;2023-06-24T08:24:33;4.75;;;3.10;;
48006;SDS011;33771;48.180;11.400;2023-06-24T08:26:59;6.53;;;3.88;;
48006;SDS011;33771;48.180;11.400;2023-06-24T08:29:24;6.47;;;3.45;;
48006;SDS011;33771;48.180;11.400;2023-06-24T08:31:50;6.32;;;3.47;;
48006;SDS011;33771;48.180;11.400;2023-06-24T08:34:15;4.45;;;3.25;;
48006;SDS011;33771;48.180;11.400;2023-06-24T08:36:41;4.05;;;3.15;;
48006;SDS011;33771;48.180;11.400;2023-06-24T08:39:07;5.57;;;3.35;;
48006;SDS011;33771;48.180;11.400;2023-06-24T08:41:33;5.15;;;2.95;;
48006;SDS011;33771;48.180;11.400;2023-06-24T08:43:58;3.50;;;2.85;;
48006;SDS011;33771;48.180;11.400;2023-06-24T08:46:25;5.05;;;3.45;;
48006;SDS011;33771;48.180;11.400;2023-06-24T08:48:53;4.63;;;3.33;;
48006;SDS011;33771;48.180;11.400;2023-06-24T08:51:27;4.18;;;3.45;;
48006;SDS011;33771;48.180;11.400;2023-06-24T08:53:56;5.78;;;3.53;;
48006;SDS011;33771;48.180;11.400;2023-06-24T08:56:23;6.43;;;4.05;;
48006;SDS011;33771;48.180;11.400;2023-06-24T08:58:50;5.00;;;3.75;;
48006;SDS011;33771;48.180;11.400;2023-06-24T09:01:16;5.70;;;3.20;;
48006;SDS011;33771;48.180;11.400;2023-06-24T09:03:42;4.00;;;3.33;;
48006;SDS011;33771;48.180;11.400;2023-06-24T09:06:08;5.10;;;4.05;;
48006;SDS011;33771;48.180;11.400;2023-06-24T09:08:33;3.83;;;3.15;;
48006;SDS011;33771;48.180;11.400;2023-06-24T09:11:00;5.72;;;3.97;;
48006;SDS011;33771;48.180;11.400;2023-06-24T09:13:35;4.78;;;3.67;;
48006;SDS011;33771;48.180;11.400;2023-06-24T09:16:11;5.28;;;3.97;;
48006;SDS011;33771;48.180;11.400;2023-06-24T09:18:39;4.45;;;3.67;;
48006;SDS011;33771;48.180;11.400;2023-06-24T09:21:04;6.38;;;4.20;;
48006;SDS011;33771;48.180;11.400;2023-06-24T09:23:31;6.95;;;4.35;;
48006;SDS011;33771;48.180;11.400;2023-06-24T09:26:00;5.85;;;3.88;;
48006;SDS011;33771;48.180;11.400;2023-06-24T09:28:26;5.75;;;4.18;;
48006;SDS011;33771;48.180;11.400;2023-06-24T09:31:14;5.47;;;3.85;;
48006;SDS011;33771;48.180;11.400;2023-06-24T09:33:39;4.88;;;3.92;;
48006;SDS011;33771;48.180;11.400;2023-06-24T09:36:05;6.45;;;4.47;;
48006;SDS011;33771;48.180;11.400;2023-06-24T09:38:34;4.75;;;3.63;;
48006;SDS011;33771;48.180;11.400;2023-06-24T09:41:04;6.00;;;4.75;;
48006;SDS011;33771;48.180;11.400;2023-06-24T09:43:30;6.63;;;4.10;;
48006;SDS011;33771;48.180;11.400;2023-06-24T09:46:01;7.18;;;4.22;;
48006;SDS011;33771;48.180;11.400;2023-06-24T09:48:27;4.40;;;3.85;;
48006;SDS011;33771;48.180;11.400;2023-06-24T09:50:58;5.13;;;4.07;;
48006;SDS011;33771;48.180;11.400;2023-06-24T09:53:26;4.57;;;4.03;;
48006;SDS011;33771;48.180;11.400;2023-06-24T09:55:55;4.47;;;3.78;;
48006;SDS011;33771;48.180;11.400;2023-06-24T09:58:22;5.28;;;3.75;;
48006;SDS011;33771;48.180;11.400;2023-06-24T10:00:49;4.90;;;4.20;;
48006;SDS011;33771;48.180;11.400;2023-06-24T10:03:16;5.00;;;3.80;;
48006;SDS011;33771;48.180;11.400;2023-06-24T10:05:42;6.20;;;3.80;;
48006;SDS011;33771;48.180;11.400;2023-06-24T10:08:08;4.78;;;3.67;;
48006;SDS011;33771;48.180;11.400;2023-06-24T10:10:35;4.85;;;3.90;;
48006;SDS011;33771;48.180;11.400;2023-06-24T10:13:00;5.70;;;3.47;;
48006;SDS011;33771;48.180;11.400;2023-06-24T10:15:26;7.55;;;4.10;;
48006;SDS011;33771;48.180;11.400;2023-06-24T10:17:52;5.32;;;3.80;;
48006;SDS011;33771;48.180;11.400;2023-06-24T10:20:24;4.65;;;3.75;;
48006;SDS011;33771;48.180;11.400;2023-06-24T10:22:51;5.40;;;3.63;;
48006;SDS011;33771;48.180;11.400;2023-06-24T10:25:17;5.82;;;3.72;;
48006;SDS011;33771;48.180;11.400;2023-06-24T10:27:43;6.28;;;3.70;;
48006;SDS011;33771;48.180;11.400;2023-06-24T10:30:16;4.55;;;3.90;;
48006;SDS011;33771;48.180;11.400;2023-06-24T10:32:44;5.25;;;3.38;;
48006;SDS011;33771;48.180;11.400;2023-06-24T10:35:25;4.93;;;3.55;;
48006;SDS011;33771;48.180;11.400;2023-06-24T10:37:58;3.90;;;2.95;;
48006;SDS011;33771;48.180;11.400;2023-06-24T10:45:48;4.00;;;3.33;;
48006;SDS011;33771;48.180;11.400;2023-06-24T10:48:18;7.43;;;3.67;;
48006;SDS011;33771;48.180;11.400;2023-06-24T10:50:46;4.93;;;3.90;;
48006;SDS011;33771;48.180;11.400;2023-06-24T10:53:13;4.53;;;3.50;;
48006;SDS011;33771;48.180;11.400;2023-06-24T10:55:39;4.30;;;3.10;;
48006;SDS011;33771;48.180;11.400;2023-06-24T10:58:08;5.30;;;3.95;;
48006;SDS011;33771;48.180;11.400;2023-06-24T11:00:34;4.75;;;3.42;;
48006;SDS011;33771;48.180;11.400;2023-06-24T11:03:13;4.80;;;3.50;;
48006;SDS011;33771;48.180;11.400;2023-06-24T11:05:40;4.78;;;3.33;;
48006;SDS011;33771;48.180;11.400;2023-06-24T11:08:07;4.95;;;3.05;;
48006;SDS011;33771;48.180;11.400;2023-06-24T11:10:33;5.55;;;2.92;;
48006;SDS011;33771;48.180;11.400;2023-06-24T11:13:04;3.28;;;2.97;;
48006;SDS011;33771;48.180;11.400;2023-06-24T11:15:31;4.07;;;3.15;;
48006;SDS011;33771;48.180;11.400;2023-06-24T11:17:57;4.68;;;3.92;;
48006;SDS011;33771;48.180;11.400;2023-06-24T11:20:23;4.97;;;3.67;;
48006;SDS011;33771;48.180;11.400;2023-06-24T11:22:48;7.43;;;3.78;;
48006;SDS011;33771;48.180;11.400;2023-06-24T11:25:18;4.90;;;3.90;;
48006;SDS011;33771;48.180;11.400;2023-06-24T11:27:45;5.18;;;3.60;;
48006;SDS011;33771;48.180;11.400;2023-06-24T11:30:11;5.10;;;3.88;;
48006;SDS011;33771;48.180;11.400;2023-06-24T11:32:38;4.05;;;3.22;;
48006;SDS011;33771;48.180;11.400;2023-06-24T11:35:05;5.20;;;3.75;;
48006;SDS011;33771;48.180;11.400;2023-06-24T11:37:33;6.88;;;3.70;;
48006;SDS011;33771;48.180;11.400;2023-06-24T11:40:05;5.97;;;4.13;;
48006;SDS011;33771;48.180;11.400;2023-06-24T11:42:35;4.60;;;3.63;;
48006;SDS011;33771;48.180;11.400;2023-06-24T11:45:02;5.15;;;3.58;;
48006;SDS011;33771;48.180;11.400;2023-06-24T11:47:30;3.85;;;3.00;;
48006;SDS011;33771;48.180;11.400;2023-06-24T11:49:58;5.43;;;3.53;;
48006;SDS011;33771;48.180;11.400;2023-06-24T11:52:41;4.43;;;3.55;;
48006;SDS011;33771;48.180;11.400;2023-06-24T11:55:21;3.95;;;3.28;;
48006;SDS011;33771;48.180;11.400;2023-06-24T12:00:27;5.43;;;2.95;;
48006;SDS011;33771;48.180;11.400;2023-06-24T12:03:10;4.10;;;3.38;;
48006;SDS011;33771;48.180;11.400;2023-06-24T12:05:36;6.72;;;3.70;;
48006;SDS011;33771;48.180;11.400;2023-06-24T12:08:05;3.90;;;3.20;;
48006;SDS011;33771;48.180;11.400;2023-06-24T12:10:34;5.63;;;3.47;;
48006;SDS011;33771;48.180;11.400;2023-06-24T12:13:01;3.30;;;2.83;;
48006;SDS011;33771;48.180;11.400;2023-06-24T12:15:28;6.30;;;3.53;;
48006;SDS011;33771;48.180;11.400;2023-06-24T12:17:54;5.45;;;3.30;;
48006;SDS011;33771;48.180;11.400;2023-06-24T12:20:20;5.13;;;3.38;;
48006;SDS011;33771;48.180;11.400;2023-06-24T12:22:47;4.20;;;3.10;;
48006;SDS011;33771;48.180;11.400;2023-06-24T12:25:13;4.85;;;3.78;;
48006;SDS011;33771;48.180;11.400;2023-06-24T12:27:41;3.85;;;3.30;;
48006;SDS011;33771;48.180;11.400;2023-06-24T12:30:07;4.90;;;3.80;;
48006;SDS011;33771;48.180;11.400;2023-06-24T12:32:34;4.15;;;3.47;;
48006;SDS011;33771;48.180;11.400;2023-06-24T12:35:00;5.65;;;3.17;;
48006;SDS011;33771;48.180;11.400;2023-06-24T12:37:28;4.50;;;3.10;;
48006;SDS011;33771;48.180;11.400;2023-06-24T12:39:55;4.63;;;2.83;;
48006;SDS011;33771;48.180;11.400;2023-06-24T12:42:21;4.82;;;3.50;;
48006;SDS011;33771;48.180;11.400;2023-06-24T12:44:46;5.28;;;3.15;;
48006;SDS011;33771;48.180;11.400;2023-06-24T12:47:12;5.05;;;3.17;;
48006;SDS011;33771;48.180;11.400;2023-06-24T12:49:37;4.13;;;3.00;;
48006;SDS011;33771;48.180;11.400;2023-06-24T12:52:03;4.35;;;3.28;;
48006;SDS011;33771;48.180;11.400;2023-06-24T12:54:29;5.20;;;3.47;;
48006;SDS011;33771;48.180;11.400;2023-06-24T12:56:54;3.33;;;2.92;;
48006;SDS011;33771;48.180;11.400;2023-06-24T12:59:20;4.40;;;3.88;;
48006;SDS011;33771;48.180;11.400;2023-06-24T13:01:45;4.35;;;3.20;;
48006;SDS011;33771;48.180;11.400;2023-06-24T13:04:11;5.18;;;3.08;;
48006;SDS011;33771;48.180;11.400;2023-06-24T13:06:37;8.55;;;3.85;;
48006;SDS011;33771;48.180;11.400;2023-06-24T13:09:02;5.15;;;3.42;;
48006;SDS011;33771;48.180;11.400;2023-06-24T13:11:28;5.18;;;3.13;;
48006;SDS011;33771;48.180;11.400;2023-06-24T13:13:54;5.82;;;3.78;;
48006;SDS011;33771;48.180;11.400;2023-06-24T13:16:20;6.28;;;3.50;;
48006;SDS011;33771;48.180;11.400;2023-06-24T13:18:45;7.38;;;3.72;;
48006;SDS011;33771;48.180;11.400;2023-06-24T13:21:11;4.78;;;4.00;;
48006;SDS011;33771;48.180;11.400;2023-06-24T13:23:36;5.43;;;3.30;;
48006;SDS011;33771;48.180;11.400;2023-06-24T13:26:05;6.28;;;4.05;;
48006;SDS011;33771;48.180;11.400;2023-06-24T13:28:31;5.85;;;3.92;;
48006;SDS011;33771;48.180;11.400;2023-06-24T13:30:57;5.60;;;3.95;;
48006;SDS011;33771;48.180;11.400;2023-06-24T13:33:23;4.95;;;3.83;;
48006;SDS011;33771;48.180;11.400;2023-06-24T13:35:49;3.92;;;3.45;;
48006;SDS011;33771;48.180;11.400;2023-06-24T13:38:16;4.43;;;3.53;;
48006;SDS011;33771;48.180;11.400;2023-06-24T13:40:41;3.70;;;3.28;;
48006;SDS011;33771;48.180;11.400;2023-06-24T13:43:07;4.07;;;3.40;;
48006;SDS011;33771;48.180;11.400;2023-06-24T13:45:33;5.45;;;3.90;;
48006;SDS011;33771;48.180;11.400;2023-06-24T13:47:58;5.93;;;3.97;;
48006;SDS011;33771;48.180;11.400;2023-06-24T13:50:24;5.18;;;4.05;;
48006;SDS011;33771;48.180;11.400;2023-06-24T13:52:50;4.47;;;3.55;;
48006;SDS011;33771;48.180;11.400;2023-06-24T13:55:15;5.60;;;4.13;;
48006;SDS011;33771;48.180;11.400;2023-06-24T13:57:41;5.43;;;3.80;;
48006;SDS011;33771;48.180;11.400;2023-06-24T14:00:07;6.28;;;3.80;;
48006;SDS011;33771;48.180;11.400;2023-06-24T14:02:34;7.75;;;3.33;;
48006;SDS011;33771;48.180;11.400;2023-06-24T14:04:59;4.60;;;3.30;;
48006;SDS011;33771;48.180;11.400;2023-06-24T14:07:25;5.22;;;3.28;;
48006;SDS011;33771;48.180;11.400;2023-06-24T14:09:51;5.55;;;3.70;;
48006;SDS011;33771;48.180;11.400;2023-06-24T14:12:16;8.73;;;4.05;;
48006;SDS011;33771;48.180;11.400;2023-06-24T14:14:42;4.35;;;3.50;;
48006;SDS011;33771;48.180;11.400;2023-06-24T14:17:07;4.68;;;3.50;;
48006;SDS011;33771;48.180;11.400;2023-06-24T14:19:37;6.30;;;3.97;;
48006;SDS011;33771;48.180;11.400;2023-06-24T14:22:04;4.53;;;3.78;;
48006;SDS011;33771;48.180;11.400;2023-06-24T14:24:30;4.50;;;3.65;;
48006;SDS011;33771;48.180;11.400;2023-06-24T14:26:56;4.88;;;3.83;;
48006;SDS011;33771;48.180;11.400;2023-06-24T14:29:22;5.97;;;3.75;;
48006;SDS011;33771;48.180;11.400;2023-06-24T14:31:47;6.00;;;3.70;;
48006;SDS011;33771;48.180;11.400;2023-06-24T14:34:13;4.32;;;3.38;;
48006;SDS011;33771;48.180;11.400;2023-06-24T14:36:39;5.28;;;3.40;;
48006;SDS011;33771;48.180;11.400;2023-06-24T14:39:04;4.43;;;3.30;;
48006;SDS011;33771;48.180;11.400;2023-06-24T14:41:30;5.90;;;3.78;;
48006;SDS011;33771;48.180;11.400;2023-06-24T14:43:56;6.15;;;3.75;;
48006;SDS011;33771;48.180;11.400;2023-06-24T14:46:21;4.03;;;3.22;;
48006;SDS011;33771;48.180;11.400;2023-06-24T14:48:47;4.65;;;3.80;;
48006;SDS011;33771;48.180;11.400;2023-06-24T14:51:12;4.35;;;3.95;;